METAR Data
IDs: Format: Raw Decoded Include TAF

Data at: 0215 UTC 24 Oct 2019

METAR for:KAMW (Ames Muni, IA, US)
Text:KAMW 240153Z AUTO 34009KT 10SM OVC033 04/03 A3011 RMK AO2 RAE15 SLP199 P0000 T00440028
Temperature: 4.4°C ( 40°F)
Dewpoint: 2.8°C ( 37°F) [RH = 89%]
Pressure (altimeter):30.11 inches Hg (1019.7 mb) [Sea level pressure: 1019.9 mb]
Winds:from the NNW (340 degrees) at 10 MPH (9 knots; 4.6 m/s)
Visibility:10 or more sm (16+ km)
Ceiling:3300 feet AGL
Clouds: overcast cloud deck at 3300 feet AGL
QC Flag:automated observation with no human augmentation